createdAt,value
2023-05-01T00:00:51.210Z,5.80
2023-05-01T00:03:53.274Z,5.90
2023-05-01T00:06:54.994Z,6.40
2023-05-01T00:09:57.526Z,6.33
2023-05-01T00:12:59.271Z,6.13
2023-05-01T00:16:01.045Z,6.50
2023-05-01T00:19:04.119Z,6.60
2023-05-01T00:22:05.758Z,6.57
2023-05-01T00:25:07.568Z,6.90
2023-05-01T00:28:09.208Z,7.37
2023-05-01T00:31:11.086Z,7.00
2023-05-01T00:34:12.862Z,6.93
2023-05-01T00:37:14.617Z,7.20
2023-05-01T00:40:16.500Z,7.30
2023-05-01T00:43:18.198Z,7.00
2023-05-01T00:46:20.315Z,7.20
2023-05-01T00:49:21.998Z,7.27
2023-05-01T00:52:24.418Z,6.80
2023-05-01T00:55:26.674Z,6.37
2023-05-01T00:58:29.296Z,7.00
2023-05-01T01:01:31.107Z,7.30
2023-05-01T01:04:33.700Z,7.33
2023-05-01T01:07:51.829Z,6.80
2023-05-01T01:10:55.670Z,7.57
2023-05-01T01:14:06.760Z,6.70
2023-05-01T01:17:13.981Z,7.20
2023-05-01T01:20:18.992Z,6.90
2023-05-01T01:23:39.439Z,7.33
2023-05-01T01:26:59.590Z,7.40
2023-05-01T01:30:01.228Z,6.53
2023-05-01T01:33:06.113Z,6.57
2023-05-01T01:36:11.807Z,6.77
2023-05-01T01:39:16.425Z,6.60
2023-05-01T01:42:41.335Z,7.20
2023-05-01T01:45:52.045Z,7.20
2023-05-01T01:48:55.438Z,6.73
2023-05-01T01:51:58.973Z,6.90
2023-05-01T01:55:06.359Z,7.00
2023-05-01T01:58:09.222Z,6.47
2023-05-01T02:01:11.779Z,6.90
2023-05-01T02:04:15.219Z,6.40
2023-05-01T02:07:18.155Z,6.90
2023-05-01T02:10:21.505Z,6.33
2023-05-01T02:13:24.690Z,7.13
2023-05-01T02:16:27.698Z,6.60
2023-05-01T02:19:30.062Z,6.77
2023-05-01T02:22:32.361Z,6.97
2023-05-01T02:25:35.435Z,6.60
2023-05-01T02:28:41.568Z,6.67
2023-05-01T02:31:43.339Z,6.33
2023-05-01T02:34:45.112Z,6.60
2023-05-01T02:37:47.196Z,7.00
2023-05-01T02:40:52.130Z,6.43
2023-05-01T02:43:56.959Z,6.80
2023-05-01T02:47:00.446Z,6.83
2023-05-01T02:50:02.886Z,6.63
2023-05-01T02:53:06.599Z,6.60
2023-05-01T02:56:43.523Z,6.40
2023-05-01T02:59:45.173Z,6.77
2023-05-01T03:02:47.401Z,6.40
2023-05-01T03:05:49.078Z,6.83
2023-05-01T03:08:50.738Z,7.03
2023-05-01T03:11:52.368Z,6.60
2023-05-01T03:14:54.053Z,7.27
2023-05-01T03:17:56.036Z,7.40
2023-05-01T03:20:57.880Z,7.43
2023-05-01T03:24:01.198Z,6.50
2023-05-01T03:27:02.945Z,7.47
2023-05-01T03:30:04.861Z,6.33
2023-05-01T03:33:11.379Z,7.90
2023-05-01T03:36:13.315Z,7.37
2023-05-01T03:39:14.992Z,8.00
2023-05-01T03:42:34.909Z,6.77
2023-05-01T03:45:44.982Z,8.00
2023-05-01T03:48:47.106Z,6.57
2023-05-01T03:51:49.319Z,6.57
2023-05-01T03:54:51.116Z,6.53
2023-05-01T03:57:58.784Z,7.30
2023-05-01T04:01:01.061Z,6.60
2023-05-01T04:04:03.524Z,6.23
2023-05-01T04:07:05.722Z,6.10
2023-05-01T04:10:09.665Z,6.00
2023-05-01T04:13:15.204Z,5.60
2023-05-01T04:16:18.182Z,6.20
2023-05-01T04:19:20.049Z,5.97
2023-05-01T04:22:25.964Z,6.37
2023-05-01T04:25:27.992Z,6.40
2023-05-01T04:28:35.259Z,6.77
2023-05-01T04:31:37.969Z,6.03
2023-05-01T04:34:39.735Z,6.53
2023-05-01T04:37:41.411Z,6.10
2023-05-01T04:40:44.064Z,6.40
2023-05-01T04:43:46.052Z,6.87
2023-05-01T04:46:51.748Z,5.80
2023-05-01T04:49:54.080Z,6.67
2023-05-01T04:52:55.895Z,6.30
2023-05-01T04:56:00.697Z,6.07
2023-05-01T04:59:06.547Z,5.87
2023-05-01T05:02:09.512Z,6.20
2023-05-01T05:05:11.913Z,5.60
2023-05-01T05:08:20.000Z,5.60
2023-05-01T05:11:28.400Z,5.77
2023-05-01T05:14:36.861Z,6.20
2023-05-01T05:17:38.847Z,5.37
2023-05-01T05:20:40.759Z,5.17
2023-05-01T05:23:43.186Z,5.57
2023-05-01T05:26:45.151Z,4.80
2023-05-01T05:29:47.124Z,4.83
2023-05-01T05:32:49.566Z,4.40
2023-05-01T05:35:51.794Z,4.67
2023-05-01T05:38:55.829Z,4.87
2023-05-01T05:41:58.984Z,4.53
2023-05-01T05:45:01.013Z,4.00
2023-05-01T05:48:03.126Z,3.90
2023-05-01T05:51:07.758Z,5.57
2023-05-01T05:54:09.626Z,4.80
2023-05-01T05:57:11.938Z,4.37
2023-05-01T06:00:19.032Z,7.90
2023-05-01T06:03:24.521Z,6.43
2023-05-01T06:06:29.365Z,7.90
2023-05-01T06:09:31.148Z,6.10
2023-05-01T06:12:34.138Z,5.03
2023-05-01T06:15:38.317Z,5.00
2023-05-01T06:18:40.015Z,3.50
2023-05-01T06:21:41.828Z,4.50
2023-05-01T06:24:45.409Z,3.80
2023-05-01T06:27:47.552Z,4.00
2023-05-01T06:30:49.324Z,3.53
2023-05-01T06:33:53.187Z,3.53
2023-05-01T06:37:02.839Z,3.40
2023-05-01T06:40:05.878Z,3.67
2023-05-01T06:43:07.732Z,3.37
2023-05-01T06:46:12.711Z,3.40
2023-05-01T06:49:17.587Z,3.80
2023-05-01T06:52:20.278Z,3.50
2023-05-01T06:55:22.432Z,3.75
2023-05-01T06:58:24.682Z,3.08
2023-05-01T07:01:27.472Z,3.65
2023-05-01T07:04:29.167Z,3.43
2023-05-01T07:07:31.034Z,3.10
2023-05-01T07:10:55.807Z,3.70
2023-05-01T07:14:08.644Z,3.30
2023-05-01T07:17:10.401Z,3.00
2023-05-01T07:20:12.692Z,3.67
2023-05-01T07:23:14.435Z,3.00
2023-05-01T07:26:16.338Z,9.02
2023-05-01T07:29:18.029Z,3.28
2023-05-01T07:32:21.274Z,3.17
2023-05-01T07:35:23.127Z,3.47
2023-05-01T07:38:25.054Z,3.63
2023-05-01T07:41:26.786Z,3.10
2023-05-01T07:44:28.574Z,2.95
2023-05-01T07:47:30.265Z,3.30
2023-05-01T07:50:32.498Z,3.40
2023-05-01T07:53:34.198Z,3.08
2023-05-01T07:56:35.809Z,2.80
2023-05-01T07:59:37.711Z,3.45
2023-05-01T08:02:39.374Z,4.20
2023-05-01T08:05:41.630Z,3.50
2023-05-01T08:08:43.277Z,3.00
2023-05-01T08:11:45.017Z,3.28
2023-05-01T08:14:46.652Z,3.40
2023-05-01T08:17:48.617Z,3.00
2023-05-01T08:20:50.377Z,3.10
2023-05-01T08:23:52.267Z,3.47
2023-05-01T08:26:54.060Z,3.00
2023-05-01T08:29:55.934Z,3.00
2023-05-01T08:32:58.195Z,2.95
2023-05-01T08:35:59.839Z,3.40
2023-05-01T08:39:01.572Z,3.38
2023-05-01T08:42:03.603Z,8.70
2023-05-01T08:45:11.874Z,3.97
2023-05-01T08:48:15.083Z,3.80
2023-05-01T08:51:21.270Z,4.40
2023-05-01T08:54:23.463Z,3.90
2023-05-01T08:57:26.663Z,4.40
2023-05-01T09:00:29.114Z,3.50
2023-05-01T09:03:32.410Z,3.70
2023-05-01T09:06:34.314Z,3.47
2023-05-01T09:09:37.304Z,4.30
2023-05-01T09:12:39.260Z,4.57
2023-05-01T09:15:41.201Z,3.60
2023-05-01T09:18:43.171Z,3.90
2023-05-01T09:21:44.891Z,3.67
2023-05-01T09:24:47.094Z,3.40
2023-05-01T09:27:48.925Z,4.88
2023-05-01T09:30:51.386Z,3.28
2023-05-01T09:33:54.542Z,3.30
2023-05-01T09:36:56.222Z,3.20
2023-05-01T09:40:16.146Z,3.40
2023-05-01T09:43:30.398Z,3.83
2023-05-01T09:46:40.961Z,3.60
2023-05-01T09:49:49.988Z,4.07
2023-05-01T09:52:52.714Z,3.63
2023-05-01T09:56:00.335Z,4.40
2023-05-01T09:59:15.897Z,4.20
2023-05-01T10:02:27.898Z,3.50
2023-05-01T10:05:42.384Z,3.57
2023-05-01T10:08:48.019Z,3.90
2023-05-01T10:11:54.689Z,3.77
2023-05-01T10:14:57.800Z,3.73
2023-05-01T10:17:59.841Z,3.50
2023-05-01T10:21:01.571Z,3.50
2023-05-01T10:24:04.069Z,3.63
2023-05-01T10:27:10.300Z,3.90
2023-05-01T10:30:12.720Z,3.60
2023-05-01T10:33:14.742Z,4.10
2023-05-01T10:36:19.335Z,4.63
2023-05-01T10:39:34.447Z,5.03
2023-05-01T10:42:56.025Z,4.80
2023-05-01T10:46:09.653Z,5.17
2023-05-01T10:49:12.877Z,4.70
2023-05-01T10:52:15.879Z,4.93
2023-05-01T10:55:32.138Z,5.73
2023-05-01T10:58:36.859Z,9.03
2023-05-01T11:01:43.013Z,5.60
2023-05-01T11:04:49.346Z,4.07
2023-05-01T11:08:11.118Z,5.10
2023-05-01T11:11:21.962Z,5.00
2023-05-01T11:14:25.855Z,5.50
2023-05-01T11:17:39.825Z,4.87
2023-05-01T11:20:48.437Z,4.00
2023-05-01T11:23:50.331Z,3.93
2023-05-01T11:26:52.075Z,3.57
2023-05-01T11:29:54.146Z,3.90
2023-05-01T11:32:55.896Z,3.40
2023-05-01T11:35:59.228Z,3.20
2023-05-01T11:39:01.057Z,3.50
2023-05-01T11:42:09.606Z,3.10
2023-05-01T11:45:11.581Z,3.23
2023-05-01T11:48:19.228Z,3.33
2023-05-01T11:51:21.030Z,3.80
2023-05-01T11:54:22.673Z,3.83
2023-05-01T11:57:24.357Z,3.80
2023-05-01T12:00:39.539Z,3.20
2023-05-01T12:03:42.753Z,3.77
2023-05-01T12:06:45.901Z,3.43
2023-05-01T12:09:47.873Z,3.13
2023-05-01T12:12:49.514Z,3.07
2023-05-01T12:15:52.565Z,3.20
2023-05-01T12:18:54.383Z,3.33
2023-05-01T12:22:06.573Z,3.67
2023-05-01T12:25:08.500Z,3.50
2023-05-01T12:28:10.515Z,3.30
2023-05-01T12:31:13.358Z,3.20
2023-05-01T12:34:15.226Z,3.00
2023-05-01T12:37:17.023Z,3.33
2023-05-01T12:40:19.015Z,3.10
2023-05-01T12:43:21.372Z,2.87
2023-05-01T12:46:23.014Z,2.83
2023-05-01T12:49:24.793Z,2.90
2023-05-01T12:52:27.467Z,3.03
2023-05-01T12:55:29.165Z,3.20
2023-05-01T12:58:37.201Z,3.43
2023-05-01T13:01:38.917Z,3.03
2023-05-01T13:04:41.087Z,3.00
2023-05-01T13:07:47.995Z,2.60
2023-05-01T13:10:49.689Z,3.20
2023-05-01T13:13:51.411Z,3.13
2023-05-01T13:16:54.421Z,3.83
2023-05-01T13:20:00.175Z,2.80
2023-05-01T13:23:09.822Z,2.97
2023-05-01T13:26:11.498Z,2.60
2023-05-01T13:29:16.676Z,2.87
2023-05-01T13:32:18.445Z,2.43
2023-05-01T13:35:24.596Z,2.47
2023-05-01T13:38:27.062Z,2.73
2023-05-01T13:41:30.041Z,2.97
2023-05-01T13:44:32.254Z,3.20
2023-05-01T13:47:37.802Z,2.70
2023-05-01T13:50:42.376Z,2.73
2023-05-01T13:53:44.063Z,2.90
2023-05-01T13:56:46.559Z,2.97
2023-05-01T13:59:48.314Z,3.30
2023-05-01T14:02:50.119Z,3.30
2023-05-01T14:05:52.161Z,2.70
2023-05-01T14:08:57.545Z,2.60
2023-05-01T14:11:59.700Z,2.67
2023-05-01T14:15:02.347Z,2.40
2023-05-01T14:18:05.579Z,2.50
2023-05-01T14:21:08.176Z,2.70
2023-05-01T14:24:10.034Z,2.70
2023-05-01T14:27:13.270Z,2.60
2023-05-01T14:30:19.333Z,2.67
2023-05-01T14:33:21.086Z,2.67
2023-05-01T14:36:23.151Z,2.73
2023-05-01T14:39:25.840Z,2.70
2023-05-01T14:42:27.535Z,2.60
2023-05-01T14:45:29.325Z,2.63
2023-05-01T14:48:34.623Z,2.30
2023-05-01T14:51:36.612Z,2.50
2023-05-01T14:54:44.636Z,2.30
2023-05-01T14:57:47.250Z,2.90
2023-05-01T15:00:49.017Z,2.60
2023-05-01T15:03:50.887Z,2.57
2023-05-01T15:06:53.660Z,2.20
2023-05-01T15:09:55.388Z,3.50
2023-05-01T15:12:56.972Z,2.77
2023-05-01T15:15:59.033Z,2.67
2023-05-01T15:19:01.136Z,2.67
2023-05-01T15:22:04.132Z,3.07
2023-05-01T15:25:07.408Z,2.40
2023-05-01T15:28:09.004Z,2.70
2023-05-01T15:31:10.736Z,2.70
2023-05-01T15:34:12.343Z,2.70
2023-05-01T15:37:14.134Z,2.83
2023-05-01T15:40:15.762Z,2.73
2023-05-01T15:43:17.571Z,2.80
2023-05-01T15:46:19.954Z,3.70
2023-05-01T15:49:21.668Z,3.10
2023-05-01T15:52:23.253Z,2.77
2023-05-01T15:55:24.819Z,2.90
2023-05-01T15:58:26.446Z,3.20
2023-05-01T16:01:28.068Z,3.23
2023-05-01T16:04:29.804Z,4.07
2023-05-01T16:07:31.467Z,3.10
2023-05-01T16:10:37.143Z,3.03
2023-05-01T16:13:39.313Z,3.00
2023-05-01T16:16:41.682Z,2.83
2023-05-01T16:19:43.374Z,2.60
2023-05-01T16:22:45.287Z,3.00
2023-05-01T16:25:46.916Z,2.93
2023-05-01T16:28:48.919Z,2.87
2023-05-01T16:31:50.779Z,3.20
2023-05-01T16:34:52.519Z,3.33
2023-05-01T16:37:54.887Z,3.53
2023-05-01T16:40:56.562Z,3.83
2023-05-01T16:43:58.668Z,3.20
2023-05-01T16:47:00.502Z,4.00
2023-05-01T16:50:02.591Z,3.70
2023-05-01T16:53:04.478Z,4.40
2023-05-01T16:56:06.389Z,3.90
2023-05-01T16:59:08.329Z,3.87
2023-05-01T17:02:10.851Z,4.50
2023-05-01T17:05:12.462Z,4.20
2023-05-01T17:08:14.081Z,4.33
2023-05-01T17:11:15.825Z,4.67
2023-05-01T17:14:17.405Z,4.70
2023-05-01T17:17:19.287Z,4.37
2023-05-01T17:20:21.411Z,5.47
2023-05-01T17:23:23.058Z,5.73
2023-05-01T17:26:24.680Z,6.47
2023-05-01T17:29:27.156Z,6.30
2023-05-01T17:32:36.554Z,6.43
2023-05-01T17:35:38.771Z,5.90
2023-05-01T17:38:41.297Z,7.47
2023-05-01T17:41:42.980Z,8.30
2023-05-01T17:44:44.633Z,7.23
2023-05-01T17:47:46.722Z,9.40
2023-05-01T17:50:48.955Z,7.93
2023-05-01T17:53:50.660Z,7.27
2023-05-01T17:56:52.357Z,7.73
2023-05-01T17:59:54.004Z,8.43
2023-05-01T18:02:55.905Z,9.43
2023-05-01T18:05:57.716Z,9.43
2023-05-01T18:08:59.420Z,8.73
2023-05-01T18:12:01.423Z,9.60
2023-05-01T18:15:03.207Z,8.43
2023-05-01T18:18:05.078Z,7.80
2023-05-01T18:21:07.350Z,8.97
2023-05-01T18:24:09.080Z,8.90
2023-05-01T18:27:10.821Z,8.13
2023-05-01T18:30:12.859Z,7.60
2023-05-01T18:33:14.894Z,7.97
2023-05-01T18:36:16.631Z,7.27
2023-05-01T18:39:20.360Z,7.37
2023-05-01T18:42:22.029Z,8.07
2023-05-01T18:45:23.672Z,8.70
2023-05-01T18:48:25.478Z,8.80
2023-05-01T18:51:27.265Z,8.07
2023-05-01T18:54:32.197Z,7.63
2023-05-01T18:57:33.880Z,7.27
2023-05-01T19:00:35.464Z,7.60
2023-05-01T19:03:37.245Z,8.27
2023-05-01T19:06:40.799Z,8.10
2023-05-01T19:09:42.550Z,8.40
2023-05-01T19:12:44.212Z,8.23
2023-05-01T19:15:46.532Z,8.67
2023-05-01T19:18:48.595Z,7.83
2023-05-01T19:21:51.106Z,8.70
2023-05-01T19:24:52.777Z,9.03
2023-05-01T19:27:54.593Z,8.80
2023-05-01T19:30:56.394Z,8.37
2023-05-01T19:33:58.078Z,7.87
2023-05-01T19:37:01.970Z,8.90
2023-05-01T19:40:04.566Z,7.83
2023-05-01T19:43:06.156Z,8.40
2023-05-01T19:46:07.845Z,7.77
2023-05-01T19:49:10.503Z,7.63
2023-05-01T19:52:12.338Z,7.40
2023-05-01T19:55:14.976Z,6.70
2023-05-01T19:58:16.770Z,8.00
2023-05-01T20:01:18.468Z,7.00
2023-05-01T20:04:23.158Z,7.57
2023-05-01T20:07:25.445Z,7.43
2023-05-01T20:10:27.455Z,7.80
2023-05-01T20:13:29.115Z,6.37
2023-05-01T20:16:31.102Z,6.87
2023-05-01T20:19:33.218Z,6.70
2023-05-01T20:22:34.918Z,6.37
2023-05-01T20:25:36.721Z,6.00
2023-05-01T20:28:38.319Z,6.30
2023-05-01T20:31:40.165Z,6.27
2023-05-01T20:34:42.055Z,6.50
2023-05-01T20:37:43.708Z,6.70
2023-05-01T20:40:45.467Z,7.40
2023-05-01T20:43:47.106Z,7.00
2023-05-01T20:46:49.150Z,6.87
2023-05-01T20:49:50.902Z,7.00
2023-05-01T20:52:53.471Z,8.37
2023-05-01T20:55:55.136Z,8.33
2023-05-01T20:58:56.750Z,8.43
2023-05-01T21:01:58.497Z,7.90
2023-05-01T21:05:00.327Z,7.67
2023-05-01T21:08:02.607Z,11.60
2023-05-01T21:11:05.735Z,7.67
2023-05-01T21:14:07.550Z,7.40
2023-05-01T21:17:09.593Z,7.10
2023-05-01T21:20:12.188Z,7.13
2023-05-01T21:23:14.636Z,6.57
2023-05-01T21:26:16.489Z,7.00
2023-05-01T21:29:18.202Z,6.97
2023-05-01T21:32:19.859Z,6.53
2023-05-01T21:35:21.556Z,6.57
2023-05-01T21:38:23.285Z,6.47
2023-05-01T21:41:24.993Z,7.00
2023-05-01T21:44:29.123Z,7.30
2023-05-01T21:47:33.469Z,7.63
2023-05-01T21:50:36.440Z,6.83
2023-05-01T21:53:40.411Z,6.60
2023-05-01T21:56:42.063Z,6.30
2023-05-01T21:59:45.167Z,6.77
2023-05-01T22:02:48.054Z,6.30
2023-05-01T22:05:49.844Z,6.30
2023-05-01T22:08:52.006Z,6.33
2023-05-01T22:11:53.890Z,6.70
2023-05-01T22:14:55.648Z,6.67
2023-05-01T22:17:57.453Z,6.23
2023-05-01T22:21:00.180Z,6.60
2023-05-01T22:24:03.031Z,6.10
2023-05-01T22:27:04.668Z,6.00
2023-05-01T22:30:06.679Z,5.83
2023-05-01T22:33:08.391Z,6.20
2023-05-01T22:36:10.031Z,6.03
2023-05-01T22:39:11.861Z,5.83
2023-05-01T22:42:13.504Z,6.77
2023-05-01T22:45:15.264Z,6.47
2023-05-01T22:48:17.031Z,6.67
2023-05-01T22:51:18.792Z,6.70
2023-05-01T22:54:20.863Z,6.33
2023-05-01T22:57:22.517Z,6.53
2023-05-01T23:00:24.146Z,6.90
2023-05-01T23:03:26.050Z,6.87
2023-05-01T23:06:27.959Z,6.80
2023-05-01T23:09:33.002Z,6.70
2023-05-01T23:12:34.718Z,6.70
2023-05-01T23:15:37.994Z,7.00
2023-05-01T23:18:39.894Z,6.63
2023-05-01T23:21:41.584Z,6.87
2023-05-01T23:24:44.705Z,6.07
2023-05-01T23:27:48.721Z,6.50
2023-05-01T23:30:53.925Z,5.53
2023-05-01T23:33:55.705Z,6.13
2023-05-01T23:36:57.312Z,6.00
2023-05-01T23:40:00.216Z,5.67
2023-05-01T23:43:02.182Z,5.40
2023-05-01T23:46:04.800Z,5.60
2023-05-01T23:49:06.572Z,5.10
2023-05-01T23:52:08.326Z,5.00
2023-05-01T23:55:10.136Z,5.23
2023-05-01T23:58:11.814Z,5.00
